Time,TemperatureF,DewpointF,PressureIn,WindDirection,WindDirectionDegrees,WindSpeedMPH,WindSpeedGustMPH,Humidity,HourlyPrecipIn,Conditions,Clouds,dailyrainin,SoftwareType,DateUTC
2013-02-28 16:22:00,41.0,26.0,29.60,NW,304,5.0,5.0,54,0.00,,,0.00,,2013-02-28 21:22:00,
2013-02-28 16:32:00,41.0,26.0,29.60,SW,231,1.0,1.0,55,0.00,,,0.00,,2013-02-28 21:32:00,
2013-02-28 16:42:00,41.0,26.0,29.60,SW,231,1.0,1.0,55,0.00,,,0.00,,2013-02-28 21:42:00,
2013-02-28 16:52:00,41.0,27.0,29.60,West,278,3.0,3.0,56,0.00,,,0.00,,2013-02-28 21:52:00,
2013-02-28 17:01:00,41.0,26.0,29.60,WNW,298,5.0,5.0,55,0.00,,,0.00,,2013-02-28 22:01:00,
2013-02-28 17:11:00,41.0,26.0,29.60,WNW,298,5.0,5.0,55,0.00,,,0.00,,2013-02-28 22:11:00,
2013-02-28 17:22:00,40.0,26.0,29.61,West,280,4.0,4.0,58,0.00,,,0.00,,2013-02-28 22:22:00,
2013-02-28 17:32:00,39.0,27.0,29.61,West,277,5.0,5.0,62,0.00,,,0.00,,2013-02-28 22:32:00,
2013-02-28 17:42:00,39.0,27.0,29.61,West,277,5.0,5.0,62,0.00,,,0.00,,2013-02-28 22:42:00,
2013-02-28 17:52:00,39.0,27.0,29.62,WNW,282,0.0,0.0,63,0.00,,,0.00,,2013-02-28 22:52:00,
2013-02-28 18:01:00,39.0,28.0,29.62,WSW,242,0.0,0.0,64,0.00,,,0.00,,2013-02-28 23:01:00,
2013-02-28 18:11:00,39.0,28.0,29.63,SW,226,1.0,1.0,64,0.00,,,0.00,,2013-02-28 23:11:00,
2013-02-28 18:22:00,39.0,28.0,29.63,SW,226,1.0,1.0,64,0.00,,,0.00,,2013-02-28 23:22:00,
2013-02-28 18:32:00,39.0,27.0,29.64,SW,226,0.0,0.0,62,0.00,,,0.00,,2013-02-28 23:32:00,
2013-02-28 18:42:00,39.0,27.0,29.64,SW,226,0.0,0.0,62,0.00,,,0.00,,2013-02-28 23:42:00,
2013-02-28 18:53:00,39.0,26.0,29.64,WNW,287,0.0,0.0,60,0.00,,,0.00,,2013-02-28 23:53:00,
2013-02-28 19:02:00,40.0,26.0,29.64,WSW,240,1.0,1.0,56,0.00,,,0.00,,2013-03-01 00:02:00,
2013-02-28 19:11:00,40.0,26.0,29.64,WSW,240,1.0,1.0,56,0.00,,,0.00,,2013-03-01 00:11:00,
2013-02-28 19:22:00,40.0,25.0,29.65,West,272,6.0,6.0,55,0.00,,,0.00,,2013-03-01 00:22:00,
2013-02-28 19:32:00,40.0,25.0,29.66,WSW,245,4.0,4.0,55,0.00,,,0.00,,2013-03-01 00:32:00,
2013-02-28 19:42:00,40.0,25.0,29.66,WSW,245,4.0,4.0,55,0.00,,,0.00,,2013-03-01 00:42:00,
2013-02-28 19:52:00,40.0,26.0,29.66,WNW,286,2.0,2.0,56,0.00,,,0.00,,2013-03-01 00:52:00,
2013-02-28 20:01:00,40.0,26.0,29.66,West,273,3.0,3.0,57,0.00,,,0.00,,2013-03-01 01:01:00,
2013-02-28 20:11:00,40.0,26.0,29.66,WNW,297,5.0,5.0,58,0.00,,,0.00,,2013-03-01 01:11:00,
2013-02-28 20:21:00,40.0,26.0,29.66,WNW,297,5.0,5.0,58,0.00,,,0.00,,2013-03-01 01:21:00,
2013-02-28 20:32:00,40.0,27.0,29.66,West,278,4.0,4.0,59,0.00,,,0.00,,2013-03-01 01:32:00,
2013-02-28 20:42:00,40.0,27.0,29.66,West,278,4.0,4.0,59,0.00,,,0.00,,2013-03-01 01:42:00,
2013-02-28 20:52:00,40.0,27.0,29.67,West,269,3.0,3.0,60,0.00,,,0.00,,2013-03-01 01:52:00,
2013-02-28 21:01:00,40.0,27.0,29.67,West,277,3.0,3.0,60,0.00,,,0.00,,2013-03-01 02:01:00,
2013-02-28 21:11:00,40.0,28.0,29.68,WNW,294,0.0,0.0,61,0.00,,,0.00,,2013-03-01 02:11:00,
2013-02-28 21:21:00,40.0,28.0,29.68,WNW,294,0.0,0.0,61,0.00,,,0.00,,2013-03-01 02:21:00,
2013-02-28 21:32:00,40.0,28.0,29.68,WNW,287,0.0,0.0,61,0.00,,,0.00,,2013-03-01 02:32:00,
2013-02-28 21:42:00,40.0,28.0,29.68,WNW,287,0.0,0.0,61,0.00,,,0.00,,2013-03-01 02:42:00,
2013-02-28 21:52:00,40.0,28.0,29.68,West,280,5.0,5.0,61,0.00,,,0.00,,2013-03-01 02:52:00,
2013-02-28 22:02:00,40.0,28.0,29.68,West,279,5.0,5.0,62,0.00,,,0.00,,2013-03-01 03:02:00,
2013-02-28 22:11:00,39.0,27.0,29.68,West,276,5.0,5.0,63,0.00,,,0.00,,2013-03-01 03:11:00,
2013-02-28 22:22:00,39.0,27.0,29.68,West,276,5.0,5.0,63,0.00,,,0.00,,2013-03-01 03:22:00,
2013-02-28 22:32:00,39.0,28.0,29.68,WNW,292,3.0,3.0,64,0.00,,,0.00,,2013-03-01 03:32:00,
2013-02-28 22:42:00,39.0,28.0,29.68,WNW,292,3.0,3.0,64,0.00,,,0.00,,2013-03-01 03:42:00,
2013-02-28 22:52:00,39.0,28.0,29.68,West,280,6.0,6.0,64,0.00,,,0.00,,2013-03-01 03:52:00,
2013-02-28 23:01:00,39.0,28.0,29.68,WNW,294,5.0,5.0,65,0.00,,,0.00,,2013-03-01 04:01:00,
2013-02-28 23:11:00,39.0,28.0,29.68,WNW,294,5.0,5.0,65,0.00,,,0.00,,2013-03-01 04:11:00,
2013-02-28 23:21:00,39.0,28.0,29.68,WNW,284,3.0,3.0,65,0.00,,,0.00,,2013-03-01 04:21:00,
2013-02-28 23:32:00,39.0,29.0,29.68,WNW,292,2.0,2.0,66,0.00,,,0.00,,2013-03-01 04:32:00,
2013-02-28 23:42:00,39.0,29.0,29.68,WNW,292,2.0,2.0,66,0.00,,,0.00,,2013-03-01 04:42:00,
2013-02-28 23:52:00,39.0,29.0,29.68,WNW,283,2.0,2.0,66,0.00,,,0.00,,2013-03-01 04:52:00,